Glacier Park International Airport Kalispell US
ICAO: KGPI
IATA: FCA
Category: Medium
Scheduled Services: Yes

Elevation: 2977 ft
TransAlt. 18000 ft.

Airport Communications:
ATIS:132.625
SALT LAKE CITY CNTR:133.4
CTAF:124.55
GND:121.6
GREAT FALLS RDO:122.5
TWR:124.55
UNICOM:122.95

KGPI Zoom In..

If you have problems with the map follow the link
https://www.worldairports.se/pages/airport.php?
ICAO=KGPI

Runways:

(A) RW 02 length 9007 ft width 150 ft
ILS 111.50 / hdg 20

(B) RW 12 length 3504 ft width 75 ft
---- / hdg 121

(C) RW 20 length 9007 ft width 150 ft
---- / hdg 200

(D) RW 30 length 3504 ft width 75 ft
---- / hdg 301

Location; KGPI
Day. 14 / Time. 17.55 Zulu
* Altimeter: 29.85
* Temperature: 00° c. 32°f.
* Wind from: 180° Speed 03 kn.
Dewpoint: -02° c.
Visibility: 10 Statute Miles.
Clouds: Overcast 6000 ft.

KGPI 141755Z 18003KT 10SM OVC060 00/M02 A2985 RMK AO2 SNE35 SLP130 P0000 60000 T00001017 10000 21028 51009


Wind From 180°
Speed 03 kn.

 
 
jpsmedia worldairports.se 2019   terms of use